sensor_id;sensor_type;location;lat;lon;timestamp;P1;durP1;ratioP1;P2;durP2;ratioP2
55053;SDS011;40954;45.668;18.980;2022-10-17T00:00:43;18.70;;;14.82;;
55053;SDS011;40954;45.668;18.980;2022-10-17T00:03:09;18.85;;;14.30;;
55053;SDS011;40954;45.668;18.980;2022-10-17T00:05:38;20.55;;;14.38;;
55053;SDS011;40954;45.668;18.980;2022-10-17T00:08:08;21.40;;;14.43;;
55053;SDS011;40954;45.668;18.980;2022-10-17T00:10:35;21.38;;;14.13;;
55053;SDS011;40954;45.668;18.980;2022-10-17T00:13:00;21.50;;;13.70;;
55053;SDS011;40954;45.668;18.980;2022-10-17T00:15:27;20.23;;;13.82;;
55053;SDS011;40954;45.668;18.980;2022-10-17T00:17:53;22.50;;;13.48;;
55053;SDS011;40954;45.668;18.980;2022-10-17T00:20:18;15.02;;;13.43;;
55053;SDS011;40954;45.668;18.980;2022-10-17T00:22:44;22.20;;;14.35;;
55053;SDS011;40954;45.668;18.980;2022-10-17T00:25:10;17.90;;;13.48;;
55053;SDS011;40954;45.668;18.980;2022-10-17T00:27:37;21.17;;;14.23;;
55053;SDS011;40954;45.668;18.980;2022-10-17T00:30:04;20.23;;;15.27;;
55053;SDS011;40954;45.668;18.980;2022-10-17T00:32:31;19.65;;;14.75;;
55053;SDS011;40954;45.668;18.980;2022-10-17T00:34:57;16.85;;;13.98;;
55053;SDS011;40954;45.668;18.980;2022-10-17T00:37:23;16.85;;;13.20;;
55053;SDS011;40954;45.668;18.980;2022-10-17T00:39:49;19.75;;;14.25;;
55053;SDS011;40954;45.668;18.980;2022-10-17T00:42:14;20.80;;;14.38;;
55053;SDS011;40954;45.668;18.980;2022-10-17T00:47:10;20.58;;;14.45;;
55053;SDS011;40954;45.668;18.980;2022-10-17T00:49:44;24.52;;;14.52;;
55053;SDS011;40954;45.668;18.980;2022-10-17T00:52:12;20.60;;;14.50;;
55053;SDS011;40954;45.668;18.980;2022-10-17T00:54:43;20.30;;;14.93;;
55053;SDS011;40954;45.668;18.980;2022-10-17T00:57:14;17.55;;;13.95;;
55053;SDS011;40954;45.668;18.980;2022-10-17T00:59:41;19.42;;;14.63;;
55053;SDS011;40954;45.668;18.980;2022-10-17T01:02:10;21.67;;;14.63;;
55053;SDS011;40954;45.668;18.980;2022-10-17T01:04:39;22.40;;;15.05;;
55053;SDS011;40954;45.668;18.980;2022-10-17T01:07:08;19.40;;;14.95;;
55053;SDS011;40954;45.668;18.980;2022-10-17T01:09:34;19.05;;;15.18;;
55053;SDS011;40954;45.668;18.980;2022-10-17T01:15:00;23.42;;;14.52;;
55053;SDS011;40954;45.668;18.980;2022-10-17T01:25:56;21.27;;;14.70;;
55053;SDS011;40954;45.668;18.980;2022-10-17T01:44:14;23.05;;;13.77;;
55053;SDS011;40954;45.668;18.980;2022-10-17T01:46:46;20.42;;;12.98;;
55053;SDS011;40954;45.668;18.980;2022-10-17T01:49:15;19.42;;;13.70;;
55053;SDS011;40954;45.668;18.980;2022-10-17T01:51:57;20.90;;;13.77;;
55053;SDS011;40954;45.668;18.980;2022-10-17T01:54:47;16.55;;;13.27;;
55053;SDS011;40954;45.668;18.980;2022-10-17T01:59:58;23.88;;;13.18;;
55053;SDS011;40954;45.668;18.980;2022-10-17T02:02:26;19.20;;;12.90;;
55053;SDS011;40954;45.668;18.980;2022-10-17T02:04:52;18.95;;;12.75;;
55053;SDS011;40954;45.668;18.980;2022-10-17T02:07:19;17.88;;;13.48;;
55053;SDS011;40954;45.668;18.980;2022-10-17T02:09:45;16.50;;;12.75;;
55053;SDS011;40954;45.668;18.980;2022-10-17T02:18:14;15.30;;;12.15;;
55053;SDS011;40954;45.668;18.980;2022-10-17T02:21:04;17.25;;;12.95;;
55053;SDS011;40954;45.668;18.980;2022-10-17T02:23:42;15.65;;;12.43;;
55053;SDS011;40954;45.668;18.980;2022-10-17T02:26:29;20.70;;;12.95;;
55053;SDS011;40954;45.668;18.980;2022-10-17T02:31:57;16.85;;;13.23;;
55053;SDS011;40954;45.668;18.980;2022-10-17T02:34:37;19.40;;;12.68;;
55053;SDS011;40954;45.668;18.980;2022-10-17T02:37:07;21.23;;;12.35;;
55053;SDS011;40954;45.668;18.980;2022-10-17T02:39:35;18.27;;;12.88;;
55053;SDS011;40954;45.668;18.980;2022-10-17T02:42:05;18.35;;;13.60;;
55053;SDS011;40954;45.668;18.980;2022-10-17T02:44:34;15.48;;;13.20;;
55053;SDS011;40954;45.668;18.980;2022-10-17T02:47:18;23.20;;;14.20;;
55053;SDS011;40954;45.668;18.980;2022-10-17T02:49:50;17.08;;;13.25;;
55053;SDS011;40954;45.668;18.980;2022-10-17T02:55:15;16.40;;;14.65;;
55053;SDS011;40954;45.668;18.980;2022-10-17T02:57:48;15.02;;;12.40;;
55053;SDS011;40954;45.668;18.980;2022-10-17T03:00:18;18.40;;;14.40;;
55053;SDS011;40954;45.668;18.980;2022-10-17T03:02:48;16.98;;;13.93;;
55053;SDS011;40954;45.668;18.980;2022-10-17T03:05:22;23.77;;;14.55;;
55053;SDS011;40954;45.668;18.980;2022-10-17T03:07:52;19.75;;;14.10;;
55053;SDS011;40954;45.668;18.980;2022-10-17T03:10:19;18.05;;;13.30;;
55053;SDS011;40954;45.668;18.980;2022-10-17T03:12:45;18.08;;;13.02;;
55053;SDS011;40954;45.668;18.980;2022-10-17T03:15:11;20.50;;;14.05;;
55053;SDS011;40954;45.668;18.980;2022-10-17T03:17:37;19.77;;;13.50;;
55053;SDS011;40954;45.668;18.980;2022-10-17T03:20:03;17.58;;;13.82;;
55053;SDS011;40954;45.668;18.980;2022-10-17T03:22:30;16.23;;;13.02;;
55053;SDS011;40954;45.668;18.980;2022-10-17T03:24:56;20.63;;;14.52;;
55053;SDS011;40954;45.668;18.980;2022-10-17T03:27:21;20.70;;;12.93;;
55053;SDS011;40954;45.668;18.980;2022-10-17T03:29:47;20.05;;;12.93;;
55053;SDS011;40954;45.668;18.980;2022-10-17T03:32:13;19.55;;;13.70;;
55053;SDS011;40954;45.668;18.980;2022-10-17T03:34:38;18.25;;;13.80;;
55053;SDS011;40954;45.668;18.980;2022-10-17T03:37:04;15.90;;;12.55;;
55053;SDS011;40954;45.668;18.980;2022-10-17T03:39:30;20.83;;;13.60;;
55053;SDS011;40954;45.668;18.980;2022-10-17T03:41:55;20.60;;;13.70;;
55053;SDS011;40954;45.668;18.980;2022-10-17T03:44:21;17.42;;;13.52;;
55053;SDS011;40954;45.668;18.980;2022-10-17T03:46:47;19.35;;;13.13;;
55053;SDS011;40954;45.668;18.980;2022-10-17T03:49:13;17.83;;;13.13;;
55053;SDS011;40954;45.668;18.980;2022-10-17T03:51:40;15.75;;;12.88;;
55053;SDS011;40954;45.668;18.980;2022-10-17T03:54:06;20.80;;;13.27;;
55053;SDS011;40954;45.668;18.980;2022-10-17T03:56:32;15.40;;;13.27;;
55053;SDS011;40954;45.668;18.980;2022-10-17T03:58:58;16.33;;;12.77;;
55053;SDS011;40954;45.668;18.980;2022-10-17T04:01:24;16.48;;;13.05;;
55053;SDS011;40954;45.668;18.980;2022-10-17T04:03:50;18.13;;;13.00;;
55053;SDS011;40954;45.668;18.980;2022-10-17T04:06:17;17.75;;;13.15;;
55053;SDS011;40954;45.668;18.980;2022-10-17T04:08:44;15.40;;;13.18;;
55053;SDS011;40954;45.668;18.980;2022-10-17T04:11:12;15.07;;;12.82;;
55053;SDS011;40954;45.668;18.980;2022-10-17T04:13:39;22.95;;;14.25;;
55053;SDS011;40954;45.668;18.980;2022-10-17T04:16:06;15.65;;;12.50;;
55053;SDS011;40954;45.668;18.980;2022-10-17T04:18:33;20.58;;;12.77;;
55053;SDS011;40954;45.668;18.980;2022-10-17T04:21:02;17.10;;;12.93;;
55053;SDS011;40954;45.668;18.980;2022-10-17T04:23:28;18.88;;;13.40;;
55053;SDS011;40954;45.668;18.980;2022-10-17T04:25:55;16.80;;;12.88;;
55053;SDS011;40954;45.668;18.980;2022-10-17T04:28:22;18.63;;;13.50;;
55053;SDS011;40954;45.668;18.980;2022-10-17T04:30:54;15.10;;;13.23;;
55053;SDS011;40954;45.668;18.980;2022-10-17T04:33:20;18.00;;;13.55;;
55053;SDS011;40954;45.668;18.980;2022-10-17T04:35:53;19.27;;;13.75;;
55053;SDS011;40954;45.668;18.980;2022-10-17T04:38:19;18.02;;;13.95;;
55053;SDS011;40954;45.668;18.980;2022-10-17T04:40:45;15.48;;;12.88;;
55053;SDS011;40954;45.668;18.980;2022-10-17T04:43:11;16.05;;;13.35;;
55053;SDS011;40954;45.668;18.980;2022-10-17T04:45:38;19.50;;;13.02;;
55053;SDS011;40954;45.668;18.980;2022-10-17T04:48:04;15.73;;;12.80;;
55053;SDS011;40954;45.668;18.980;2022-10-17T04:50:29;16.95;;;13.40;;
55053;SDS011;40954;45.668;18.980;2022-10-17T04:52:55;19.35;;;13.60;;
55053;SDS011;40954;45.668;18.980;2022-10-17T04:55:21;17.95;;;14.35;;
55053;SDS011;40954;45.668;18.980;2022-10-17T04:57:46;19.02;;;14.25;;
55053;SDS011;40954;45.668;18.980;2022-10-17T05:00:12;22.60;;;14.43;;
55053;SDS011;40954;45.668;18.980;2022-10-17T05:02:38;20.17;;;13.98;;
55053;SDS011;40954;45.668;18.980;2022-10-17T05:05:04;19.40;;;14.70;;
55053;SDS011;40954;45.668;18.980;2022-10-17T05:07:30;17.80;;;13.00;;
55053;SDS011;40954;45.668;18.980;2022-10-17T05:09:56;24.00;;;14.20;;
55053;SDS011;40954;45.668;18.980;2022-10-17T05:12:23;17.48;;;13.57;;
55053;SDS011;40954;45.668;18.980;2022-10-17T05:14:49;20.63;;;13.60;;
55053;SDS011;40954;45.668;18.980;2022-10-17T05:17:15;16.10;;;12.57;;
55053;SDS011;40954;45.668;18.980;2022-10-17T05:19:41;15.57;;;12.57;;
55053;SDS011;40954;45.668;18.980;2022-10-17T05:22:07;22.02;;;13.48;;
55053;SDS011;40954;45.668;18.980;2022-10-17T05:24:33;18.45;;;14.77;;
55053;SDS011;40954;45.668;18.980;2022-10-17T05:26:59;20.42;;;15.02;;
55053;SDS011;40954;45.668;18.980;2022-10-17T05:29:25;17.58;;;14.80;;
55053;SDS011;40954;45.668;18.980;2022-10-17T05:31:51;21.15;;;14.65;;
55053;SDS011;40954;45.668;18.980;2022-10-17T05:34:17;20.77;;;14.35;;
55053;SDS011;40954;45.668;18.980;2022-10-17T05:36:43;21.85;;;14.95;;
55053;SDS011;40954;45.668;18.980;2022-10-17T05:39:10;20.48;;;15.02;;
55053;SDS011;40954;45.668;18.980;2022-10-17T05:41:38;26.08;;;16.45;;
55053;SDS011;40954;45.668;18.980;2022-10-17T05:44:04;23.13;;;15.10;;
55053;SDS011;40954;45.668;18.980;2022-10-17T05:46:31;33.05;;;15.40;;
55053;SDS011;40954;45.668;18.980;2022-10-17T05:48:57;28.38;;;15.43;;
55053;SDS011;40954;45.668;18.980;2022-10-17T05:51:23;17.05;;;14.50;;
55053;SDS011;40954;45.668;18.980;2022-10-17T05:53:49;24.67;;;14.43;;
55053;SDS011;40954;45.668;18.980;2022-10-17T05:56:15;20.42;;;15.45;;
55053;SDS011;40954;45.668;18.980;2022-10-17T05:58:41;20.10;;;15.38;;
55053;SDS011;40954;45.668;18.980;2022-10-17T06:01:09;19.52;;;15.10;;
55053;SDS011;40954;45.668;18.980;2022-10-17T06:03:35;17.75;;;14.73;;
55053;SDS011;40954;45.668;18.980;2022-10-17T06:06:03;20.85;;;13.55;;
55053;SDS011;40954;45.668;18.980;2022-10-17T06:08:29;20.23;;;14.63;;
55053;SDS011;40954;45.668;18.980;2022-10-17T06:10:55;21.70;;;14.02;;
55053;SDS011;40954;45.668;18.980;2022-10-17T06:13:21;16.55;;;13.05;;
55053;SDS011;40954;45.668;18.980;2022-10-17T06:15:47;16.63;;;13.40;;
55053;SDS011;40954;45.668;18.980;2022-10-17T06:18:13;18.70;;;13.48;;
55053;SDS011;40954;45.668;18.980;2022-10-17T06:20:39;20.65;;;13.80;;
55053;SDS011;40954;45.668;18.980;2022-10-17T06:23:05;21.08;;;13.73;;
55053;SDS011;40954;45.668;18.980;2022-10-17T06:25:32;16.83;;;13.40;;
55053;SDS011;40954;45.668;18.980;2022-10-17T06:27:57;16.98;;;13.15;;
55053;SDS011;40954;45.668;18.980;2022-10-17T06:30:23;22.20;;;13.43;;
55053;SDS011;40954;45.668;18.980;2022-10-17T06:32:50;18.98;;;12.38;;
55053;SDS011;40954;45.668;18.980;2022-10-17T06:35:17;18.40;;;13.32;;
55053;SDS011;40954;45.668;18.980;2022-10-17T06:37:44;18.83;;;13.80;;
55053;SDS011;40954;45.668;18.980;2022-10-17T06:40:10;20.52;;;14.07;;
55053;SDS011;40954;45.668;18.980;2022-10-17T06:42:37;16.10;;;13.55;;
55053;SDS011;40954;45.668;18.980;2022-10-17T06:45:03;17.45;;;13.30;;
55053;SDS011;40954;45.668;18.980;2022-10-17T06:47:29;17.48;;;13.20;;
55053;SDS011;40954;45.668;18.980;2022-10-17T06:49:55;17.42;;;14.30;;
55053;SDS011;40954;45.668;18.980;2022-10-17T06:52:21;17.52;;;13.73;;
55053;SDS011;40954;45.668;18.980;2022-10-17T06:54:47;18.52;;;14.38;;
55053;SDS011;40954;45.668;18.980;2022-10-17T06:57:13;18.48;;;12.48;;
55053;SDS011;40954;45.668;18.980;2022-10-17T06:59:38;22.60;;;13.05;;
55053;SDS011;40954;45.668;18.980;2022-10-17T07:02:04;24.30;;;14.20;;
55053;SDS011;40954;45.668;18.980;2022-10-17T07:04:30;18.83;;;14.32;;
55053;SDS011;40954;45.668;18.980;2022-10-17T07:06:56;20.77;;;12.95;;
55053;SDS011;40954;45.668;18.980;2022-10-17T07:09:22;17.98;;;13.13;;
55053;SDS011;40954;45.668;18.980;2022-10-17T07:11:48;17.90;;;12.38;;
55053;SDS011;40954;45.668;18.980;2022-10-17T07:14:14;15.02;;;12.30;;
55053;SDS011;40954;45.668;18.980;2022-10-17T07:16:39;21.08;;;13.05;;
55053;SDS011;40954;45.668;18.980;2022-10-17T07:19:05;17.25;;;12.57;;
55053;SDS011;40954;45.668;18.980;2022-10-17T07:21:31;17.98;;;12.70;;
55053;SDS011;40954;45.668;18.980;2022-10-17T07:23:57;15.60;;;12.88;;
55053;SDS011;40954;45.668;18.980;2022-10-17T07:26:23;16.65;;;13.18;;
55053;SDS011;40954;45.668;18.980;2022-10-17T07:28:50;20.50;;;13.50;;
55053;SDS011;40954;45.668;18.980;2022-10-17T07:31:18;16.02;;;13.02;;
55053;SDS011;40954;45.668;18.980;2022-10-17T07:33:45;16.20;;;11.98;;
55053;SDS011;40954;45.668;18.980;2022-10-17T07:36:11;14.20;;;11.85;;
55053;SDS011;40954;45.668;18.980;2022-10-17T07:38:37;17.73;;;13.63;;
55053;SDS011;40954;45.668;18.980;2022-10-17T07:41:04;15.48;;;11.43;;
55053;SDS011;40954;45.668;18.980;2022-10-17T07:43:31;16.40;;;12.15;;
55053;SDS011;40954;45.668;18.980;2022-10-17T07:45:59;16.65;;;11.45;;
55053;SDS011;40954;45.668;18.980;2022-10-17T07:48:26;14.35;;;10.75;;
55053;SDS011;40954;45.668;18.980;2022-10-17T07:50:51;14.20;;;11.35;;
55053;SDS011;40954;45.668;18.980;2022-10-17T07:53:17;15.57;;;11.23;;
55053;SDS011;40954;45.668;18.980;2022-10-17T07:55:43;16.40;;;11.35;;
55053;SDS011;40954;45.668;18.980;2022-10-17T07:58:11;18.25;;;12.65;;
55053;SDS011;40954;45.668;18.980;2022-10-17T08:00:37;22.25;;;13.02;;
55053;SDS011;40954;45.668;18.980;2022-10-17T08:03:03;22.00;;;14.20;;
55053;SDS011;40954;45.668;18.980;2022-10-17T08:05:29;12.30;;;10.93;;
55053;SDS011;40954;45.668;18.980;2022-10-17T08:07:56;13.65;;;11.52;;
55053;SDS011;40954;45.668;18.980;2022-10-17T08:10:22;13.90;;;10.40;;
55053;SDS011;40954;45.668;18.980;2022-10-17T08:12:52;16.48;;;10.98;;
55053;SDS011;40954;45.668;18.980;2022-10-17T08:15:18;14.52;;;10.65;;
55053;SDS011;40954;45.668;18.980;2022-10-17T08:17:44;14.85;;;11.45;;
55053;SDS011;40954;45.668;18.980;2022-10-17T08:20:10;20.70;;;12.05;;
55053;SDS011;40954;45.668;18.980;2022-10-17T08:22:36;16.02;;;10.98;;
55053;SDS011;40954;45.668;18.980;2022-10-17T08:25:01;16.95;;;10.52;;
55053;SDS011;40954;45.668;18.980;2022-10-17T08:27:27;14.15;;;10.30;;
55053;SDS011;40954;45.668;18.980;2022-10-17T08:29:53;14.88;;;10.65;;
55053;SDS011;40954;45.668;18.980;2022-10-17T08:32:19;12.70;;;10.02;;
55053;SDS011;40954;45.668;18.980;2022-10-17T08:34:47;13.13;;;10.50;;
55053;SDS011;40954;45.668;18.980;2022-10-17T08:37:13;11.95;;;9.80;;
55053;SDS011;40954;45.668;18.980;2022-10-17T08:39:39;16.88;;;11.27;;
55053;SDS011;40954;45.668;18.980;2022-10-17T08:47:35;14.82;;;11.15;;
55053;SDS011;40954;45.668;18.980;2022-10-17T08:50:05;13.60;;;10.70;;
55053;SDS011;40954;45.668;18.980;2022-10-17T08:55:16;15.05;;;10.07;;
55053;SDS011;40954;45.668;18.980;2022-10-17T08:57:52;12.90;;;10.50;;
55053;SDS011;40954;45.668;18.980;2022-10-17T09:00:19;25.17;;;11.38;;
55053;SDS011;40954;45.668;18.980;2022-10-17T09:02:52;16.40;;;9.95;;
55053;SDS011;40954;45.668;18.980;2022-10-17T09:08:19;18.13;;;9.73;;
55053;SDS011;40954;45.668;18.980;2022-10-17T09:14:00;11.73;;;9.40;;
55053;SDS011;40954;45.668;18.980;2022-10-17T09:19:32;16.92;;;9.25;;
55053;SDS011;40954;45.668;18.980;2022-10-17T09:22:09;11.43;;;8.82;;
55053;SDS011;40954;45.668;18.980;2022-10-17T09:24:59;16.38;;;8.82;;
55053;SDS011;40954;45.668;18.980;2022-10-17T09:27:37;15.00;;;9.35;;
55053;SDS011;40954;45.668;18.980;2022-10-17T09:32:46;9.98;;;7.43;;
55053;SDS011;40954;45.668;18.980;2022-10-17T09:35:15;12.43;;;7.45;;
55053;SDS011;40954;45.668;18.980;2022-10-17T09:37:42;12.52;;;7.15;;
55053;SDS011;40954;45.668;18.980;2022-10-17T09:40:12;11.18;;;6.22;;
55053;SDS011;40954;45.668;18.980;2022-10-17T09:42:54;11.40;;;7.20;;
55053;SDS011;40954;45.668;18.980;2022-10-17T09:45:20;11.27;;;6.47;;
55053;SDS011;40954;45.668;18.980;2022-10-17T09:48:00;7.50;;;6.03;;
55053;SDS011;40954;45.668;18.980;2022-10-17T09:50:50;14.80;;;6.72;;
55053;SDS011;40954;45.668;18.980;2022-10-17T09:55:46;10.00;;;5.88;;
55053;SDS011;40954;45.668;18.980;2022-10-17T09:58:19;9.45;;;5.82;;
55053;SDS011;40954;45.668;18.980;2022-10-17T10:00:46;12.70;;;5.25;;
55053;SDS011;40954;45.668;18.980;2022-10-17T10:03:14;6.90;;;5.28;;
55053;SDS011;40954;45.668;18.980;2022-10-17T10:05:41;8.90;;;5.78;;
55053;SDS011;40954;45.668;18.980;2022-10-17T10:08:14;14.98;;;5.90;;
55053;SDS011;40954;45.668;18.980;2022-10-17T10:10:41;8.57;;;5.45;;
55053;SDS011;40954;45.668;18.980;2022-10-17T10:15:41;9.65;;;5.20;;
55053;SDS011;40954;45.668;18.980;2022-10-17T10:20:45;8.65;;;5.50;;
55053;SDS011;40954;45.668;18.980;2022-10-17T10:23:13;6.28;;;5.18;;
55053;SDS011;40954;45.668;18.980;2022-10-17T10:25:55;6.68;;;5.25;;
55053;SDS011;40954;45.668;18.980;2022-10-17T10:28:24;14.93;;;5.82;;
55053;SDS011;40954;45.668;18.980;2022-10-17T10:30:51;9.55;;;5.95;;
55053;SDS011;40954;45.668;18.980;2022-10-17T10:33:19;8.05;;;5.10;;
55053;SDS011;40954;45.668;18.980;2022-10-17T10:35:57;6.93;;;5.03;;
55053;SDS011;40954;45.668;18.980;2022-10-17T10:38:25;6.22;;;5.18;;
55053;SDS011;40954;45.668;18.980;2022-10-17T10:40:55;6.07;;;4.63;;
55053;SDS011;40954;45.668;18.980;2022-10-17T10:43:32;5.23;;;4.33;;
55053;SDS011;40954;45.668;18.980;2022-10-17T10:45:58;5.93;;;4.55;;
55053;SDS011;40954;45.668;18.980;2022-10-17T10:48:26;5.78;;;4.60;;
55053;SDS011;40954;45.668;18.980;2022-10-17T10:55:51;6.88;;;3.88;;
55053;SDS011;40954;45.668;18.980;2022-10-17T11:00:53;7.85;;;3.60;;
55053;SDS011;40954;45.668;18.980;2022-10-17T11:03:22;5.50;;;3.95;;
55053;SDS011;40954;45.668;18.980;2022-10-17T11:05:55;6.72;;;4.03;;
55053;SDS011;40954;45.668;18.980;2022-10-17T11:10:57;27.02;;;5.68;;
55053;SDS011;40954;45.668;18.980;2022-10-17T11:13:26;7.72;;;3.95;;
55053;SDS011;40954;45.668;18.980;2022-10-17T11:16:15;6.10;;;4.20;;
55053;SDS011;40954;45.668;18.980;2022-10-17T11:18:47;6.95;;;3.90;;
55053;SDS011;40954;45.668;18.980;2022-10-17T11:21:17;10.65;;;3.90;;
55053;SDS011;40954;45.668;18.980;2022-10-17T11:23:46;7.38;;;3.60;;
55053;SDS011;40954;45.668;18.980;2022-10-17T11:26:15;3.83;;;3.47;;
55053;SDS011;40954;45.668;18.980;2022-10-17T11:28:49;3.35;;;3.08;;
55053;SDS011;40954;45.668;18.980;2022-10-17T11:31:16;5.55;;;3.97;;
55053;SDS011;40954;45.668;18.980;2022-10-17T11:33:44;9.48;;;3.80;;
55053;SDS011;40954;45.668;18.980;2022-10-17T11:36:10;3.75;;;3.45;;
55053;SDS011;40954;45.668;18.980;2022-10-17T11:38:45;8.20;;;3.78;;
55053;SDS011;40954;45.668;18.980;2022-10-17T11:41:14;8.20;;;3.47;;
55053;SDS011;40954;45.668;18.980;2022-10-17T11:48:41;4.75;;;3.28;;
55053;SDS011;40954;45.668;18.980;2022-10-17T11:51:11;7.00;;;3.75;;
55053;SDS011;40954;45.668;18.980;2022-10-17T11:56:09;6.38;;;3.08;;
55053;SDS011;40954;45.668;18.980;2022-10-17T11:58:58;5.95;;;3.20;;
55053;SDS011;40954;45.668;18.980;2022-10-17T12:01:37;3.30;;;2.70;;
55053;SDS011;40954;45.668;18.980;2022-10-17T12:04:15;8.75;;;3.08;;
55053;SDS011;40954;45.668;18.980;2022-10-17T12:11:50;4.72;;;3.88;;
55053;SDS011;40954;45.668;18.980;2022-10-17T12:17:01;6.82;;;3.30;;
55053;SDS011;40954;45.668;18.980;2022-10-17T12:19:28;4.13;;;3.72;;
55053;SDS011;40954;45.668;18.980;2022-10-17T12:24:41;5.80;;;3.60;;
55053;SDS011;40954;45.668;18.980;2022-10-17T12:35:50;4.30;;;3.85;;
55053;SDS011;40954;45.668;18.980;2022-10-17T12:38:33;7.07;;;3.83;;
55053;SDS011;40954;45.668;18.980;2022-10-17T12:40:59;9.63;;;3.75;;
55053;SDS011;40954;45.668;18.980;2022-10-17T12:45:55;5.13;;;3.35;;
55053;SDS011;40954;45.668;18.980;2022-10-17T12:53:28;11.30;;;3.55;;
55053;SDS011;40954;45.668;18.980;2022-10-17T12:56:00;4.88;;;3.55;;
55053;SDS011;40954;45.668;18.980;2022-10-17T12:58:26;4.70;;;3.03;;
55053;SDS011;40954;45.668;18.980;2022-10-17T13:00:53;5.43;;;3.00;;
55053;SDS011;40954;45.668;18.980;2022-10-17T13:04:02;4.00;;;2.80;;
55053;SDS011;40954;45.668;18.980;2022-10-17T13:06:11;5.87;;;2.83;;
55053;SDS011;40954;45.668;18.980;2022-10-17T13:08:43;4.85;;;3.42;;
55053;SDS011;40954;45.668;18.980;2022-10-17T13:11:09;6.78;;;3.22;;
55053;SDS011;40954;45.668;18.980;2022-10-17T13:13:40;11.63;;;3.22;;
55053;SDS011;40954;45.668;18.980;2022-10-17T13:16:07;6.93;;;3.75;;
55053;SDS011;40954;45.668;18.980;2022-10-17T13:18:33;7.10;;;3.10;;
55053;SDS011;40954;45.668;18.980;2022-10-17T13:21:12;5.55;;;3.05;;
55053;SDS011;40954;45.668;18.980;2022-10-17T13:23:39;5.37;;;2.77;;
55053;SDS011;40954;45.668;18.980;2022-10-17T13:26:07;5.45;;;3.08;;
55053;SDS011;40954;45.668;18.980;2022-10-17T13:28:37;6.90;;;3.22;;
55053;SDS011;40954;45.668;18.980;2022-10-17T13:31:03;5.75;;;2.80;;
55053;SDS011;40954;45.668;18.980;2022-10-17T13:33:35;3.45;;;3.15;;
55053;SDS011;40954;45.668;18.980;2022-10-17T13:36:03;5.60;;;3.50;;
55053;SDS011;40954;45.668;18.980;2022-10-17T13:38:31;4.90;;;3.20;;
55053;SDS011;40954;45.668;18.980;2022-10-17T13:40:59;6.22;;;3.22;;
55053;SDS011;40954;45.668;18.980;2022-10-17T13:43:25;4.28;;;3.63;;
55053;SDS011;40954;45.668;18.980;2022-10-17T13:45:52;3.50;;;3.20;;
55053;SDS011;40954;45.668;18.980;2022-10-17T13:48:21;3.67;;;3.17;;
55053;SDS011;40954;45.668;18.980;2022-10-17T13:50:49;7.93;;;3.38;;
55053;SDS011;40954;45.668;18.980;2022-10-17T13:53:23;7.80;;;3.47;;
55053;SDS011;40954;45.668;18.980;2022-10-17T13:56:34;5.65;;;3.38;;
55053;SDS011;40954;45.668;18.980;2022-10-17T13:58:40;7.68;;;3.47;;
55053;SDS011;40954;45.668;18.980;2022-10-17T14:03:32;5.80;;;3.58;;
55053;SDS011;40954;45.668;18.980;2022-10-17T14:05:59;4.70;;;3.60;;
55053;SDS011;40954;45.668;18.980;2022-10-17T14:08:26;8.50;;;3.88;;
55053;SDS011;40954;45.668;18.980;2022-10-17T14:10:52;6.45;;;3.60;;
55053;SDS011;40954;45.668;18.980;2022-10-17T14:13:25;6.13;;;4.55;;
55053;SDS011;40954;45.668;18.980;2022-10-17T14:15:52;9.18;;;4.13;;
55053;SDS011;40954;45.668;18.980;2022-10-17T14:18:27;3.97;;;3.67;;
55053;SDS011;40954;45.668;18.980;2022-10-17T14:20:53;8.60;;;4.75;;
55053;SDS011;40954;45.668;18.980;2022-10-17T14:23:29;6.00;;;5.50;;
55053;SDS011;40954;45.668;18.980;2022-10-17T14:26:06;6.97;;;4.28;;
55053;SDS011;40954;45.668;18.980;2022-10-17T14:28:33;6.80;;;4.03;;
55053;SDS011;40954;45.668;18.980;2022-10-17T14:33:44;6.60;;;3.65;;
55053;SDS011;40954;45.668;18.980;2022-10-17T14:36:11;9.80;;;4.10;;
55053;SDS011;40954;45.668;18.980;2022-10-17T14:38:37;6.80;;;4.38;;
55053;SDS011;40954;45.668;18.980;2022-10-17T14:41:23;6.10;;;4.25;;
55053;SDS011;40954;45.668;18.980;2022-10-17T14:44:00;7.93;;;3.78;;
55053;SDS011;40954;45.668;18.980;2022-10-17T14:46:26;7.32;;;4.00;;
55053;SDS011;40954;45.668;18.980;2022-10-17T14:49:00;9.07;;;3.63;;
55053;SDS011;40954;45.668;18.980;2022-10-17T14:51:27;10.88;;;4.00;;
55053;SDS011;40954;45.668;18.980;2022-10-17T14:54:36;6.97;;;3.85;;
55053;SDS011;40954;45.668;18.980;2022-10-17T14:56:47;4.75;;;3.70;;
55053;SDS011;40954;45.668;18.980;2022-10-17T14:59:15;4.90;;;3.88;;
55053;SDS011;40954;45.668;18.980;2022-10-17T15:01:46;6.50;;;4.30;;
55053;SDS011;40954;45.668;18.980;2022-10-17T15:04:12;9.02;;;4.20;;
55053;SDS011;40954;45.668;18.980;2022-10-17T15:06:38;7.03;;;3.88;;
55053;SDS011;40954;45.668;18.980;2022-10-17T15:09:04;7.10;;;3.72;;
55053;SDS011;40954;45.668;18.980;2022-10-17T15:11:30;7.63;;;3.80;;
55053;SDS011;40954;45.668;18.980;2022-10-17T15:13:56;11.85;;;4.30;;
55053;SDS011;40954;45.668;18.980;2022-10-17T15:16:26;11.27;;;4.35;;
55053;SDS011;40954;45.668;18.980;2022-10-17T15:18:55;12.90;;;5.07;;
55053;SDS011;40954;45.668;18.980;2022-10-17T15:21:22;13.55;;;5.68;;
55053;SDS011;40954;45.668;18.980;2022-10-17T15:23:48;12.73;;;5.75;;
55053;SDS011;40954;45.668;18.980;2022-10-17T15:26:18;15.80;;;6.20;;
55053;SDS011;40954;45.668;18.980;2022-10-17T15:28:45;9.88;;;5.72;;
55053;SDS011;40954;45.668;18.980;2022-10-17T15:31:12;9.95;;;6.13;;
55053;SDS011;40954;45.668;18.980;2022-10-17T15:33:39;10.20;;;6.28;;
55053;SDS011;40954;45.668;18.980;2022-10-17T15:36:15;9.43;;;5.55;;
55053;SDS011;40954;45.668;18.980;2022-10-17T15:38:41;11.00;;;5.03;;
55053;SDS011;40954;45.668;18.980;2022-10-17T15:41:08;8.68;;;5.00;;
55053;SDS011;40954;45.668;18.980;2022-10-17T15:43:35;13.00;;;6.20;;
55053;SDS011;40954;45.668;18.980;2022-10-17T15:46:01;13.77;;;10.10;;
55053;SDS011;40954;45.668;18.980;2022-10-17T15:48:28;73.95;;;44.22;;
55053;SDS011;40954;45.668;18.980;2022-10-17T15:50:55;223.65;;;108.88;;
55053;SDS011;40954;45.668;18.980;2022-10-17T15:53:21;305.92;;;137.45;;
55053;SDS011;40954;45.668;18.980;2022-10-17T15:55:48;168.27;;;78.53;;
55053;SDS011;40954;45.668;18.980;2022-10-17T15:58:15;107.55;;;51.28;;
55053;SDS011;40954;45.668;18.980;2022-10-17T16:00:42;148.40;;;71.40;;
55053;SDS011;40954;45.668;18.980;2022-10-17T16:03:08;170.02;;;82.25;;
55053;SDS011;40954;45.668;18.980;2022-10-17T16:05:34;206.95;;;98.13;;
55053;SDS011;40954;45.668;18.980;2022-10-17T16:08:00;147.40;;;70.57;;
55053;SDS011;40954;45.668;18.980;2022-10-17T16:10:26;91.68;;;43.67;;
55053;SDS011;40954;45.668;18.980;2022-10-17T16:12:53;74.40;;;32.85;;
55053;SDS011;40954;45.668;18.980;2022-10-17T16:15:21;55.00;;;25.33;;
55053;SDS011;40954;45.668;18.980;2022-10-17T16:17:48;39.20;;;18.20;;
55053;SDS011;40954;45.668;18.980;2022-10-17T16:20:15;18.83;;;10.95;;
55053;SDS011;40954;45.668;18.980;2022-10-17T16:22:42;14.70;;;8.50;;
55053;SDS011;40954;45.668;18.980;2022-10-17T16:27:44;15.10;;;9.50;;